Wiseman, Arkansas
Current Conditions -  °F | °C
As of 8:55 PM on Thursday 18 Dec 2014 (Local Time) from KBVX Reporting Station
Overcast Overcast  
Wind Chill: 39°   Ceiling: 1000
Heat Index: 39°   Visibility: 5mi
Dew Point: 36°   Wind: 0mph
Humidity: 87%   Direction: NA
Pressure: 30.25"   Gusts: NA
Location:  36.23°N, 91.82°W
Report Text: KBVX 190255Z AUTO 00000KT 5SM OVC010 04/02 A3025 RMK AO1 52014
Loading
Personal Weather Stations






























Interactive Weather Map New forecast layout! Learn more

10-Day Weather Forecast

Advertisements
Track Severe Weather on mobile